Time;durP1;ratioP1;P1;durP2;ratioP2;P2;SDS_P1;SDS_P2;PMS_P1;PMS_P2;Temp;Humidity;BMP_temperature;BMP_pressure;BME280_temperature;BME280_humidity;BME280_pressure;Samples;Min_cycle;Max_cycle;Signal;HPM_P1;HPM_P2
2023/10/07 00:00:59;;;;;;;1999.90;999.90;;;15.10;99.90;;;;;;5093508;28;20439;-67
2023/10/07 00:03:25;;;;;;;1999.90;999.90;;;15.20;99.90;;;;;;5093642;28;20407;-68
2023/10/07 00:06:00;;;;;;;1999.90;999.90;;;15.30;99.90;;;;;;5093419;28;20432;-67
2023/10/07 00:08:27;;;;;;;1999.90;999.90;;;15.30;99.90;;;;;;5085927;28;20400;-68
2023/10/07 00:10:55;;;;;;;1999.90;999.90;;;15.30;99.90;;;;;;5093399;28;21163;-67
2023/10/07 00:13:22;;;;;;;1999.90;999.90;;;15.30;99.90;;;;;;5101899;28;20828;-67
2023/10/07 00:15:51;;;;;;;1999.90;999.90;;;15.30;99.90;;;;;;5093567;28;20492;-67
2023/10/07 00:18:18;;;;;;;1999.90;999.90;;;15.20;99.90;;;;;;5092965;28;20947;-68
2023/10/07 00:20:49;;;;;;;1999.90;999.90;;;15.20;99.90;;;;;;5093087;28;20437;-68
2023/10/07 00:23:26;;;;;;;1999.90;999.90;;;15.10;99.90;;;;;;5093127;28;20498;-68
2023/10/07 00:25:53;;;;;;;1999.90;999.90;;;15.10;99.90;;;;;;5093098;28;20911;-69
2023/10/07 00:28:32;;;;;;;1999.90;999.90;;;15.00;99.90;;;;;;5093047;28;20404;-67
2023/10/07 00:31:02;;;;;;;1999.90;999.90;;;15.00;99.90;;;;;;5093163;28;20432;-69
2023/10/07 00:33:30;;;;;;;1999.90;999.90;;;15.00;99.90;;;;;;5092980;28;20926;-67
2023/10/07 00:36:01;;;;;;;1999.90;999.90;;;15.00;99.90;;;;;;5092733;28;20413;-68
2023/10/07 00:38:37;;;;;;;1999.90;999.90;;;15.00;99.90;;;;;;5092794;28;20456;-68
2023/10/07 00:41:03;;;;;;;1999.90;999.90;;;14.90;99.90;;;;;;5092814;28;20435;-67
2023/10/07 00:43:33;;;;;;;1999.90;999.90;;;14.90;99.90;;;;;;5092905;28;20413;-67
2023/10/07 00:46:11;;;;;;;1999.90;999.90;;;14.80;99.90;;;;;;5092711;28;20522;-68
2023/10/07 00:48:56;;;;;;;1999.90;999.90;;;14.80;99.90;;;;;;5092613;28;20416;-67
2023/10/07 00:51:35;;;;;;;1999.90;999.90;;;14.80;99.90;;;;;;5092530;28;20424;-68
2023/10/07 00:54:30;;;;;;;1999.90;999.90;;;14.80;99.90;;;;;;5092617;28;20525;-67
2023/10/07 00:57:13;;;;;;;1999.90;999.90;;;14.80;99.90;;;;;;5092662;28;20418;-67
2023/10/07 00:59:40;;;;;;;1999.90;999.90;;;15.00;99.90;;;;;;5092484;28;20525;-67
2023/10/07 01:02:16;;;;;;;1999.90;999.90;;;14.90;99.90;;;;;;5092611;28;20408;-67
2023/10/07 01:04:42;;;;;;;1999.90;999.90;;;14.90;99.90;;;;;;5092473;28;20545;-68
2023/10/07 01:07:13;;;;;;;1999.90;999.90;;;14.90;99.90;;;;;;5092451;28;20404;-67
2023/10/07 01:09:39;;;;;;;1999.90;999.90;;;14.90;99.90;;;;;;5092512;28;20207;-68
2023/10/07 01:12:08;;;;;;;1999.90;999.90;;;14.90;99.90;;;;;;5092228;28;20451;-68
2023/10/07 01:14:35;;;;;;;1999.90;999.90;;;14.80;99.90;;;;;;5092322;28;20419;-68
2023/10/07 01:17:01;;;;;;;1999.90;999.90;;;14.90;99.90;;;;;;5092089;28;20773;-69
2023/10/07 01:19:28;;;;;;;1999.90;999.90;;;14.80;99.90;;;;;;5092018;28;20444;-69
2023/10/07 01:21:55;;;;;;;1999.90;999.90;;;14.90;99.90;;;;;;5092086;28;20462;-69
2023/10/07 01:24:44;;;;;;;1999.90;999.90;;;14.80;99.90;;;;;;5092125;28;20395;-69
2023/10/07 01:29:50;;;;;;;1999.90;999.90;;;14.90;99.90;;;;;;5086996;28;20430;-68
2023/10/07 01:32:17;;;;;;;1999.90;999.90;;;14.90;99.90;;;;;;5098720;28;20430;-69
2023/10/07 01:34:52;;;;;;;1999.90;999.90;;;15.00;99.90;;;;;;5092058;28;20804;-69
2023/10/07 01:37:25;;;;;;;1999.90;999.90;;;15.10;99.90;;;;;;5091932;28;20404;-69
2023/10/07 01:39:53;;;;;;;1999.90;999.90;;;15.00;99.90;;;;;;5091917;28;20449;-69
2023/10/07 01:42:37;;;;;;;1999.90;999.90;;;15.00;99.90;;;;;;5091895;28;20450;-68
2023/10/07 01:45:22;;;;;;;1999.90;999.90;;;15.00;99.90;;;;;;5091889;28;20392;-69
2023/10/07 01:47:55;;;;;;;1999.90;999.90;;;15.00;99.90;;;;;;5092129;28;20436;-68
2023/10/07 01:50:24;;;;;;;1999.90;999.90;;;15.10;99.90;;;;;;5096012;28;20569;-69
2023/10/07 01:52:55;;;;;;;1999.90;999.90;;;15.00;99.90;;;;;;5096052;28;20421;-69
2023/10/07 01:55:20;;;;;;;1999.90;999.90;;;15.00;99.90;;;;;;5095945;28;20417;-69
2023/10/07 01:57:50;;;;;;;1999.90;999.90;;;15.00;99.90;;;;;;5095679;28;20405;-68
2023/10/07 02:00:39;;;;;;;1999.90;999.90;;;15.00;99.90;;;;;;5095856;28;20228;-69
2023/10/07 02:03:03;;;;;;;1999.90;999.90;;;15.00;99.90;;;;;;5095749;28;20445;-69
2023/10/07 02:05:40;;;;;;;1999.90;999.90;;;15.00;99.90;;;;;;5095666;28;20408;-69
2023/10/07 02:08:11;;;;;;;1999.90;999.90;;;15.00;99.90;;;;;;5095777;28;20463;-69
2023/10/07 02:10:40;;;;;;;1999.90;999.90;;;14.90;99.90;;;;;;5095778;28;20452;-69
2023/10/07 02:13:08;;;;;;;1999.90;999.90;;;14.90;99.90;;;;;;5095832;28;20787;-68
2023/10/07 02:15:37;;;;;;;1999.90;999.90;;;14.90;99.90;;;;;;5095586;28;20825;-68
2023/10/07 02:18:04;;;;;;;1999.90;999.90;;;14.90;99.90;;;;;;5095220;28;20487;-69
2023/10/07 02:20:38;;;;;;;1999.90;999.90;;;14.80;99.90;;;;;;5095603;28;20499;-68
2023/10/07 02:23:11;;;;;;;1999.90;999.90;;;14.80;99.90;;;;;;5095652;28;20407;-69
2023/10/07 02:25:40;;;;;;;1999.90;999.90;;;14.80;99.90;;;;;;5095483;28;20413;-69
2023/10/07 02:28:06;;;;;;;1999.90;999.90;;;14.80;99.90;;;;;;5095191;28;20447;-68
2023/10/07 02:30:46;;;;;;;1999.90;999.90;;;14.70;99.90;;;;;;5095264;28;20480;-68
2023/10/07 02:33:13;;;;;;;1999.90;999.90;;;14.70;99.90;;;;;;5095202;28;20418;-69
2023/10/07 02:35:39;;;;;;;1999.90;999.90;;;14.70;99.90;;;;;;5095286;28;20422;-69
2023/10/07 02:38:05;;;;;;;1999.90;999.90;;;14.70;99.90;;;;;;5094940;28;20453;-69
2023/10/07 02:40:35;;;;;;;1999.90;999.90;;;14.70;99.90;;;;;;5095120;28;20661;-69
2023/10/07 02:43:10;;;;;;;1999.90;999.90;;;14.70;99.90;;;;;;5095055;28;20255;-69
2023/10/07 02:45:39;;;;;;;1999.90;999.90;;;14.70;99.90;;;;;;5095022;28;21152;-68
2023/10/07 02:48:10;;;;;;;1999.90;999.90;;;14.70;99.90;;;;;;5094932;28;20882;-69
2023/10/07 02:50:42;;;;;;;1999.90;999.90;;;14.70;99.90;;;;;;5095011;28;20471;-69
2023/10/07 02:53:16;;;;;;;1999.90;999.90;;;14.70;99.90;;;;;;5094927;28;20941;-69
2023/10/07 02:55:47;;;;;;;1999.90;999.90;;;14.70;99.90;;;;;;5095079;28;20419;-69
2023/10/07 02:58:26;;;;;;;1999.90;999.90;;;14.70;99.90;;;;;;5094702;28;20463;-68
2023/10/07 03:00:51;;;;;;;1999.90;999.90;;;14.80;99.90;;;;;;5093530;28;20429;-69
2023/10/07 03:05:58;;;;;;;1999.90;999.90;;;14.80;99.90;;;;;;5094666;28;20162;-68
2023/10/07 03:08:40;;;;;;;1999.90;999.90;;;14.70;99.90;;;;;;5094737;28;20408;-69
2023/10/07 03:11:11;;;;;;;1999.90;999.90;;;14.80;99.90;;;;;;5094545;28;20448;-68
2023/10/07 03:13:45;;;;;;;1999.90;999.90;;;14.80;99.90;;;;;;5094561;28;20414;-69
2023/10/07 03:18:47;;;;;;;1999.90;999.90;;;14.90;99.90;;;;;;5094415;28;20455;-68
2023/10/07 03:21:15;;;;;;;1999.90;999.90;;;14.80;99.90;;;;;;5094311;28;20420;-69
2023/10/07 03:23:58;;;;;;;1999.90;999.90;;;14.90;99.90;;;;;;5094324;28;20404;-68
2023/10/07 03:26:24;;;;;;;1999.90;999.90;;;14.80;99.90;;;;;;5094219;28;20488;-69
2023/10/07 03:28:54;;;;;;;1999.90;999.90;;;14.90;99.90;;;;;;5094057;28;20544;-69
2023/10/07 03:31:27;;;;;;;1999.90;999.90;;;14.90;99.90;;;;;;5094317;28;20472;-69
2023/10/07 03:33:53;;;;;;;1999.90;999.90;;;14.90;99.90;;;;;;5094269;28;20439;-68
2023/10/07 03:38:55;;;;;;;1999.90;999.90;;;15.00;99.90;;;;;;5093840;28;20960;-69
2023/10/07 03:41:21;;;;;;;1999.90;999.90;;;15.00;99.90;;;;;;5093880;28;20423;-69
2023/10/07 03:43:47;;;;;;;1999.90;999.90;;;15.00;99.90;;;;;;5093958;28;20406;-69
2023/10/07 03:46:17;;;;;;;1999.90;999.90;;;15.00;99.90;;;;;;5093902;28;20406;-68
2023/10/07 03:48:53;;;;;;;1999.90;999.90;;;15.10;99.90;;;;;;5093754;28;20543;-69
2023/10/07 03:51:22;;;;;;;1999.90;999.90;;;15.20;99.90;;;;;;5093758;28;20432;-69
2023/10/07 03:53:54;;;;;;;1999.90;999.90;;;15.20;99.90;;;;;;5093702;28;20966;-68
2023/10/07 03:56:20;;;;;;;1999.90;999.90;;;15.20;99.90;;;;;;5093889;28;20843;-69
2023/10/07 03:58:46;;;;;;;1999.90;999.90;;;15.20;99.90;;;;;;5093413;28;20548;-69
2023/10/07 04:01:22;;;;;;;1999.90;999.90;;;15.30;99.90;;;;;;5093619;28;20422;-69
2023/10/07 04:03:50;;;;;;;1999.90;999.90;;;15.30;99.90;;;;;;5093687;28;20431;-68
2023/10/07 04:06:17;;;;;;;1999.90;999.90;;;15.30;99.90;;;;;;5093407;28;20417;-68
2023/10/07 04:08:52;;;;;;;1999.90;999.90;;;15.30;99.90;;;;;;5093533;28;20414;-68
2023/10/07 04:11:19;;;;;;;1999.90;999.90;;;15.30;99.90;;;;;;5093080;28;20464;-68
2023/10/07 04:13:46;;;;;;;1999.90;999.90;;;15.30;99.90;;;;;;5093412;28;20463;-69
2023/10/07 04:16:22;;;;;;;1999.90;999.90;;;15.30;99.90;;;;;;5093246;28;20412;-69
2023/10/07 04:18:53;;;;;;;1999.90;999.90;;;15.30;99.90;;;;;;5092995;28;20452;-69
2023/10/07 04:21:20;;;;;;;1999.90;999.90;;;15.30;99.90;;;;;;5093692;28;20476;-69
2023/10/07 04:23:46;;;;;;;1999.90;999.90;;;15.30;99.90;;;;;;5094967;28;20405;-69
2023/10/07 04:26:21;;;;;;;1999.90;999.90;;;15.30;99.90;;;;;;5095075;28;20413;-69
2023/10/07 04:28:48;;;;;;;1999.90;999.90;;;15.30;99.90;;;;;;5094377;28;20415;-69
2023/10/07 04:31:16;;;;;;;1999.90;999.90;;;15.30;99.90;;;;;;5094567;28;20517;-68
2023/10/07 04:33:47;;;;;;;1999.90;999.90;;;15.30;99.90;;;;;;5095160;28;20410;-70
2023/10/07 04:36:14;;;;;;;1999.90;999.90;;;15.30;99.90;;;;;;5094752;28;20405;-68
2023/10/07 04:46:45;;;;;;;1999.90;999.90;;;15.30;99.90;;;;;;5095168;28;20402;-69
2023/10/07 04:49:13;;;;;;;1999.90;999.90;;;15.40;99.90;;;;;;5094869;28;20789;-69
2023/10/07 04:54:07;;;;;;;1999.90;999.90;;;15.40;99.90;;;;;;5094660;28;20405;-69
2023/10/07 04:56:35;;;;;;;1999.90;999.90;;;15.50;99.90;;;;;;5094677;28;20914;-70
2023/10/07 04:59:05;;;;;;;1999.90;999.90;;;15.50;99.90;;;;;;5095267;28;20235;-68
2023/10/07 05:01:31;;;;;;;1999.90;999.90;;;15.50;99.90;;;;;;5094504;28;20413;-69
2023/10/07 05:04:15;;;;;;;1999.90;999.90;;;15.50;99.90;;;;;;5095697;28;20406;-69
2023/10/07 05:06:43;;;;;;;1999.90;999.90;;;15.50;99.90;;;;;;5095013;28;20457;-69
2023/10/07 05:09:09;;;;;;;1999.90;999.90;;;15.50;99.90;;;;;;5094568;28;20511;-68
2023/10/07 05:11:45;;;;;;;1999.90;999.90;;;15.50;99.90;;;;;;5094348;28;20453;-69
2023/10/07 05:14:11;;;;;;;1999.90;999.90;;;15.50;99.90;;;;;;5094351;28;20419;-69
2023/10/07 05:16:38;;;;;;;1999.90;999.90;;;15.50;99.90;;;;;;5094703;28;20409;-69
2023/10/07 05:19:08;;;;;;;1999.90;999.90;;;15.50;99.90;;;;;;5093692;28;20548;-69
2023/10/07 05:21:37;;;;;;;1999.90;999.90;;;15.50;99.90;;;;;;5093838;28;20498;-69
2023/10/07 05:24:04;;;;;;;1999.90;999.90;;;15.60;99.90;;;;;;5093173;28;20445;-69
2023/10/07 05:26:31;;;;;;;1999.90;999.90;;;15.60;99.90;;;;;;5094219;28;20459;-69
2023/10/07 05:29:02;;;;;;;1999.90;999.90;;;15.60;99.90;;;;;;5093261;28;20978;-70
2023/10/07 05:31:30;;;;;;;1999.90;999.90;;;15.60;99.90;;;;;;5093507;28;20450;-69
2023/10/07 05:33:59;;;;;;;1999.90;999.90;;;15.60;99.90;;;;;;5094035;28;20407;-68
2023/10/07 05:36:32;;;;;;;1999.90;999.90;;;15.60;99.90;;;;;;5094391;28;20420;-69
2023/10/07 05:39:00;;;;;;;1999.90;999.90;;;15.60;99.90;;;;;;5093040;28;20463;-69
2023/10/07 05:41:28;;;;;;;1999.90;999.90;;;15.60;99.90;;;;;;5094296;28;20837;-70
2023/10/07 05:43:54;;;;;;;1999.90;999.90;;;15.70;99.90;;;;;;5093811;28;20419;-69
2023/10/07 05:46:20;;;;;;;1999.90;999.90;;;15.70;99.90;;;;;;5093565;28;20406;-69
2023/10/07 05:48:47;;;;;;;1999.90;999.90;;;15.70;99.90;;;;;;5093075;28;20417;-69
2023/10/07 05:51:13;;;;;;;1999.90;999.90;;;15.70;99.90;;;;;;5093126;28;20433;-69
2023/10/07 05:53:48;;;;;;;1999.90;999.90;;;15.70;99.90;;;;;;5093200;28;20415;-69
2023/10/07 05:56:14;;;;;;;1999.90;999.90;;;15.60;99.90;;;;;;5093464;28;20180;-69
2023/10/07 05:58:40;;;;;;;1999.90;999.90;;;15.60;99.90;;;;;;5092902;28;20473;-69
2023/10/07 06:01:08;;;;;;;1999.90;999.90;;;15.60;99.90;;;;;;5093161;28;20450;-69
2023/10/07 06:03:34;;;;;;;1999.90;999.90;;;15.60;99.90;;;;;;5093186;28;20415;-68
2023/10/07 06:06:01;;;;;;;1999.90;999.90;;;15.60;99.90;;;;;;5093793;28;20444;-70
2023/10/07 06:08:28;;;;;;;1999.90;999.90;;;15.60;99.90;;;;;;5093177;28;20181;-69
2023/10/07 06:10:56;;;;;;;1999.90;999.90;;;15.70;99.90;;;;;;5093083;28;20444;-70
2023/10/07 06:13:28;;;;;;;1999.90;999.90;;;15.70;99.90;;;;;;5093032;28;20445;-68
2023/10/07 06:15:58;;;;;;;1999.90;999.90;;;15.70;99.90;;;;;;5093791;28;20448;-69
2023/10/07 06:18:25;;;;;;;1999.90;999.90;;;15.70;99.90;;;;;;5093094;28;20456;-69
2023/10/07 06:20:51;;;;;;;1999.90;999.90;;;15.70;99.90;;;;;;5093321;28;20961;-70
2023/10/07 06:23:24;;;;;;;1999.90;999.90;;;15.70;99.90;;;;;;5094085;28;20409;-69
2023/10/07 06:25:51;;;;;;;1999.90;999.90;;;15.70;99.90;;;;;;5093023;28;20484;-69
2023/10/07 06:31:13;;;;;;;1999.90;999.90;;;15.80;99.90;;;;;;5093170;28;20796;-70
2023/10/07 06:33:42;;;;;;;1999.90;999.90;;;15.80;99.90;;;;;;5093984;28;20409;-69
2023/10/07 06:36:10;;;;;;;1999.90;999.90;;;15.90;99.90;;;;;;5097251;28;20415;-68
2023/10/07 06:39:02;;;;;;;1999.90;999.90;;;15.90;99.90;;;;;;5096860;28;20538;-70
2023/10/07 06:41:29;;;;;;;1999.90;999.90;;;15.90;99.90;;;;;;5096540;28;20427;-70
2023/10/07 06:44:08;;;;;;;1999.90;999.90;;;15.90;99.90;;;;;;5095984;28;20494;-69
2023/10/07 06:46:40;;;;;;;1999.90;999.90;;;16.00;99.90;;;;;;5097118;28;20411;-69
2023/10/07 06:49:19;;;;;;;1999.90;999.90;;;16.00;99.90;;;;;;5096438;28;20417;-69
2023/10/07 06:51:53;;;;;;;1999.90;999.90;;;16.00;99.90;;;;;;5096510;28;20808;-69
2023/10/07 06:54:23;;;;;;;1999.90;999.90;;;15.90;99.90;;;;;;5096615;28;20446;-68
2023/10/07 06:56:54;;;;;;;1999.90;999.90;;;15.90;99.90;;;;;;5095854;28;20417;-68
2023/10/07 06:59:27;;;;;;;1999.90;999.90;;;15.90;99.90;;;;;;5096301;28;20469;-69
2023/10/07 07:01:54;;;;;;;1999.90;999.90;;;16.00;99.90;;;;;;5095944;28;20430;-68
2023/10/07 07:04:22;;;;;;;1999.90;999.90;;;16.00;99.90;;;;;;5096457;28;20405;-69
2023/10/07 07:06:58;;;;;;;1999.90;999.90;;;16.00;99.90;;;;;;5096354;28;20761;-69
2023/10/07 07:12:12;;;;;;;1999.90;999.90;;;16.10;99.90;;;;;;5096882;28;20802;-69
2023/10/07 07:14:51;;;;;;;1999.90;999.90;;;16.20;99.90;;;;;;5096610;28;20446;-70
2023/10/07 07:17:30;;;;;;;1999.90;999.90;;;16.30;99.90;;;;;;5096416;28;20476;-70
2023/10/07 07:22:45;;;;;;;1999.90;999.90;;;16.40;99.90;;;;;;5096708;28;20496;-69
2023/10/07 07:25:22;;;;;;;1999.90;999.90;;;16.40;99.90;;;;;;5096371;28;20401;-68
2023/10/07 07:27:52;;;;;;;1999.90;999.90;;;16.50;99.90;;;;;;5095848;28;20751;-69
2023/10/07 07:30:31;;;;;;;1999.90;999.90;;;16.50;99.90;;;;;;5095999;28;21044;-69
2023/10/07 07:32:59;;;;;;;1999.90;999.90;;;16.50;99.90;;;;;;5095835;28;20443;-69
2023/10/07 07:35:40;;;;;;;1999.90;999.90;;;16.50;99.90;;;;;;5096455;28;20970;-68
2023/10/07 07:38:29;;;;;;;1999.90;999.90;;;16.60;99.90;;;;;;5095230;28;20494;-69
2023/10/07 07:41:05;;;;;;;1999.90;999.90;;;16.60;99.90;;;;;;5095961;28;20989;-69
2023/10/07 07:43:33;;;;;;;1999.90;999.90;;;16.60;99.90;;;;;;5095731;28;20461;-69
2023/10/07 07:46:18;;;;;;;1999.90;999.90;;;16.60;99.90;;;;;;5094883;28;21012;-67
2023/10/07 07:48:48;;;;;;;1999.90;999.90;;;16.60;99.90;;;;;;5095219;28;20785;-68
2023/10/07 07:51:16;;;;;;;1999.90;999.90;;;16.50;99.90;;;;;;5095237;28;20982;-69
2023/10/07 07:53:43;;;;;;;1999.90;999.90;;;16.50;99.90;;;;;;5095963;28;20518;-69
2023/10/07 07:56:12;;;;;;;1999.90;999.90;;;16.60;99.90;;;;;;5095701;28;20414;-68
2023/10/07 07:58:38;;;;;;;1999.90;999.90;;;16.70;99.90;;;;;;5095711;28;20516;-68
2023/10/07 08:01:08;;;;;;;1999.90;999.90;;;16.70;99.90;;;;;;5095486;28;20423;-69
2023/10/07 08:03:35;;;;;;;1999.90;999.90;;;16.70;99.90;;;;;;5095493;28;20759;-68
2023/10/07 08:06:04;;;;;;;1999.90;999.90;;;16.70;99.90;;;;;;5096160;28;20771;-69
2023/10/07 08:08:31;;;;;;;1999.90;999.90;;;16.70;99.90;;;;;;5095620;28;20426;-68
2023/10/07 08:10:58;;;;;;;1999.90;999.90;;;16.80;99.90;;;;;;5095258;28;20463;-69
2023/10/07 08:13:27;;;;;;;1999.90;999.90;;;16.70;99.90;;;;;;5095985;28;20479;-68
2023/10/07 08:15:56;;;;;;;1999.90;999.90;;;16.70;99.90;;;;;;5095567;28;20411;-70
2023/10/07 08:18:22;;;;;;;1999.90;999.90;;;16.70;99.90;;;;;;5095380;28;20823;-68
2023/10/07 08:20:56;;;;;;;1999.90;999.90;;;16.60;99.90;;;;;;5095137;28;20527;-68
2023/10/07 08:23:28;;;;;;;1999.90;999.90;;;16.70;99.90;;;;;;5095611;28;20759;-70
2023/10/07 08:26:10;;;;;;;1999.90;999.90;;;16.70;99.90;;;;;;5095591;28;20416;-69
2023/10/07 08:28:59;;;;;;;1999.90;999.90;;;16.70;99.90;;;;;;5095227;28;20421;-69
2023/10/07 08:31:44;;;;;;;1999.90;999.90;;;16.80;99.90;;;;;;5095488;28;20786;-69
2023/10/07 08:34:10;;;;;;;1999.90;999.90;;;16.90;99.90;;;;;;5095162;28;20411;-69
2023/10/07 08:36:37;;;;;;;1999.90;999.90;;;16.90;99.90;;;;;;5094907;28;20409;-68
2023/10/07 08:39:08;;;;;;;1999.90;999.90;;;17.00;99.90;;;;;;5092827;28;20493;-68
2023/10/07 08:41:35;;;;;;;1999.90;999.90;;;17.10;99.90;;;;;;5092877;28;20519;-68
2023/10/07 08:44:13;;;;;;;1999.90;999.90;;;17.20;99.90;;;;;;5084493;28;20421;-69
2023/10/07 08:46:48;;;;;;;1999.90;999.90;;;17.30;99.90;;;;;;5086407;28;20930;-70
2023/10/07 08:49:16;;;;;;;1999.90;999.90;;;17.30;99.90;;;;;;5087887;28;20458;-70
2023/10/07 08:51:43;;;;;;;1999.90;999.90;;;17.30;99.90;;;;;;5087894;28;20437;-69
2023/10/07 08:54:17;;;;;;;1999.90;999.90;;;17.40;99.90;;;;;;5089635;28;20419;-70
2023/10/07 08:56:54;;;;;;;1999.90;999.90;;;17.60;99.90;;;;;;5089223;28;20407;-69
2023/10/07 08:59:32;;;;;;;1999.90;999.90;;;17.60;99.90;;;;;;5088153;28;20462;-69
2023/10/07 09:02:03;;;;;;;1999.90;999.90;;;17.70;99.90;;;;;;5088243;28;20463;-69
2023/10/07 09:04:33;;;;;;;1999.90;999.90;;;17.80;99.90;;;;;;5088419;28;20418;-69
2023/10/07 09:07:00;;;;;;;1999.90;999.90;;;17.80;99.90;;;;;;5087923;28;20433;-69
2023/10/07 09:09:38;;;;;;;1999.90;999.90;;;17.80;99.90;;;;;;5088608;28;20429;-69
2023/10/07 09:12:11;;;;;;;1999.90;999.90;;;17.70;99.90;;;;;;5087447;28;20460;-69
2023/10/07 09:14:40;;;;;;;1999.90;999.90;;;17.60;99.90;;;;;;5087712;28;20849;-68
2023/10/07 09:17:09;;;;;;;1999.90;999.90;;;17.60;99.90;;;;;;5087126;28;20411;-68
2023/10/07 09:19:36;;;;;;;1999.90;999.90;;;17.80;99.90;;;;;;5083863;28;20459;-69
2023/10/07 09:22:10;;;;;;;1999.90;999.90;;;17.80;99.90;;;;;;5091065;28;21027;-70
2023/10/07 09:24:41;;;;;;;1999.90;999.90;;;17.80;99.90;;;;;;5082729;28;20410;-69
2023/10/07 09:27:11;;;;;;;1999.90;999.90;;;18.00;99.90;;;;;;5086691;28;20952;-69
2023/10/07 09:29:37;;;;;;;1999.90;999.90;;;18.00;99.90;;;;;;5087132;28;20412;-69
2023/10/07 09:32:16;;;;;;;1999.90;999.90;;;18.00;99.90;;;;;;5087792;28;20955;-68
2023/10/07 09:34:44;;;;;;;1999.90;999.90;;;17.90;99.90;;;;;;5087592;28;20453;-69
2023/10/07 09:37:13;;;;;;;1999.90;999.90;;;18.00;99.90;;;;;;5087597;28;21180;-69
2023/10/07 09:39:44;;;;;;;1999.90;999.90;;;18.00;99.90;;;;;;5086917;28;20472;-69
2023/10/07 09:42:36;;;;;;;1999.90;999.90;;;18.10;99.90;;;;;;5086929;28;20488;-69
2023/10/07 09:45:17;;;;;;;1999.90;999.90;;;18.20;99.90;;;;;;5087765;28;20408;-70
2023/10/07 09:47:44;;;;;;;1999.90;999.90;;;18.20;99.90;;;;;;5087553;28;20928;-69
2023/10/07 09:50:25;;;;;;;1999.90;999.90;;;18.30;99.90;;;;;;5087196;28;20432;-69
2023/10/07 09:52:59;;;;;;;1999.90;999.90;;;18.30;99.90;;;;;;5087638;28;20947;-69
2023/10/07 09:55:40;;;;;;;1999.90;999.90;;;18.40;99.90;;;;;;5086881;28;20413;-69
2023/10/07 09:58:41;;;;;;;1999.90;999.90;;;18.60;99.90;;;;;;5087316;28;21132;-69
2023/10/07 10:01:38;;;;;;;1999.90;999.90;;;18.70;99.90;;;;;;5087422;28;20417;-69
2023/10/07 10:04:13;;;;;;;1999.90;999.90;;;18.80;99.90;;;;;;5087122;28;20493;-68
2023/10/07 10:06:47;;;;;;;1999.90;999.90;;;18.90;99.90;;;;;;5086459;28;20407;-68
2023/10/07 10:09:14;;;;;;;1999.90;999.90;;;19.10;99.90;;;;;;5088073;28;20821;-69
2023/10/07 10:11:55;;;;;;;1999.90;999.90;;;19.20;99.90;;;;;;5091422;28;20445;-69
2023/10/07 10:14:56;;;;;;;1999.90;999.90;;;19.20;99.90;;;;;;5091711;28;20879;-69
2023/10/07 10:17:22;;;;;;;1999.90;999.90;;;19.50;99.90;;;;;;5090391;28;20527;-68
2023/10/07 10:19:56;;;;;;;1999.90;999.90;;;19.50;99.90;;;;;;5090407;28;20505;-68
2023/10/07 10:22:22;;;;;;;1999.90;999.90;;;19.70;99.90;;;;;;5090780;28;20423;-68
2023/10/07 10:24:59;;;;;;;1999.90;999.90;;;19.80;99.90;;;;;;5091194;28;20415;-70
2023/10/07 10:27:26;;;;;;;1999.90;999.90;;;19.90;99.90;;;;;;5090563;28;20926;-70
2023/10/07 10:29:52;;;;;;;1999.90;999.90;;;20.00;99.90;;;;;;5090058;28;20449;-70
2023/10/07 10:32:33;;;;;;;1999.90;999.90;;;20.10;99.90;;;;;;5089557;28;20998;-69
2023/10/07 10:35:01;;;;;;;1999.90;999.90;;;20.20;99.90;;;;;;5090214;28;20424;-70
2023/10/07 10:37:30;;;;;;;1999.90;999.90;;;20.30;99.90;;;;;;5090195;28;20443;-70
2023/10/07 10:39:56;;;;;;;1999.90;999.90;;;20.40;99.90;;;;;;5090640;28;20567;-70
2023/10/07 10:42:22;;;;;;;1999.90;999.90;;;20.50;99.90;;;;;;5090273;28;20472;-69
2023/10/07 10:44:51;;;;;;;1999.90;999.90;;;20.60;99.90;;;;;;5090267;28;20818;-71
2023/10/07 10:47:21;;;;;;;1999.90;999.90;;;20.70;99.90;;;;;;5090510;28;20420;-70
2023/10/07 10:49:54;;;;;;;1999.90;999.90;;;20.70;99.90;;;;;;5090302;28;20420;-70
2023/10/07 10:52:21;;;;;;;1999.90;999.90;;;20.80;99.90;;;;;;5089977;28;20524;-70
2023/10/07 10:54:47;;;;;;;1999.90;999.90;;;20.90;99.90;;;;;;5089784;28;20477;-70
2023/10/07 10:57:19;;;;;;;1999.90;999.90;;;21.00;99.90;;;;;;5090453;28;20420;-70
2023/10/07 10:59:47;;;;;;;1999.90;999.90;;;21.00;99.90;;;;;;5090477;28;20254;-69
2023/10/07 11:02:17;;;;;;;1999.90;999.90;;;21.00;99.90;;;;;;5090309;28;20430;-70
2023/10/07 11:04:46;;;;;;;1999.90;999.90;;;21.00;99.90;;;;;;5090447;28;20462;-70
2023/10/07 11:07:14;;;;;;;1999.90;999.90;;;20.90;99.90;;;;;;5090374;28;20400;-70
2023/10/07 11:09:41;;;;;;;1999.90;999.90;;;21.10;99.90;;;;;;5090109;28;20418;-70
2023/10/07 11:12:12;;;;;;;1999.90;999.90;;;21.20;99.90;;;;;;5089575;28;20928;-69
2023/10/07 11:14:41;;;;;;;1999.90;999.90;;;21.10;99.90;;;;;;5089963;28;20774;-70
2023/10/07 11:17:10;;;;;;;1999.90;999.90;;;21.20;99.90;;;;;;5090289;28;20419;-70
2023/10/07 11:19:42;;;;;;;1999.90;999.90;;;21.30;99.90;;;;;;5089787;28;20460;-70
2023/10/07 11:22:12;;;;;;;1999.90;999.90;;;21.50;99.90;;;;;;5088315;28;20535;-70
2023/10/07 11:24:39;;;;;;;1999.90;999.90;;;21.70;99.90;;;;;;5089667;28;20462;-70
2023/10/07 11:27:08;;;;;;;1999.90;999.90;;;22.10;99.90;;;;;;5089655;28;20959;-70
2023/10/07 11:29:35;;;;;;;1999.90;999.90;;;22.40;99.90;;;;;;5089933;28;20418;-70
2023/10/07 11:32:08;;;;;;;1999.90;999.90;;;22.80;99.90;;;;;;5089122;28;20434;-69
2023/10/07 11:34:39;;;;;;;1999.90;999.90;;;23.30;98.30;;;;;;5088997;28;20416;-70
2023/10/07 11:37:13;;;;;;;1999.90;999.90;;;23.70;95.70;;;;;;5089179;28;20471;-70
2023/10/07 11:39:44;;;;;;;1999.90;999.90;;;24.10;91.60;;;;;;5089871;28;20958;-71
2023/10/07 11:42:14;;;;;;;1999.90;999.90;;;24.40;89.60;;;;;;5088824;28;20420;-70
2023/10/07 11:44:42;;;;;;;1999.90;999.90;;;24.60;85.60;;;;;;5088619;28;20383;-70
2023/10/07 11:47:09;;;;;;;1999.90;999.90;;;24.90;79.00;;;;;;5088598;28;20411;-69
2023/10/07 11:49:34;;;;;;;1999.90;999.90;;;25.00;76.10;;;;;;5089731;28;20890;-70
2023/10/07 11:52:03;;;;;;;1999.90;999.90;;;25.30;72.50;;;;;;5089132;28;20403;-70
2023/10/07 11:54:31;;;;;;;1999.90;999.90;;;25.50;65.60;;;;;;5088979;28;20225;-70
2023/10/07 11:56:57;;;;;;;1999.90;999.90;;;25.60;64.20;;;;;;5088732;28;20387;-70
2023/10/07 11:59:23;;;;;;;1999.90;999.90;;;25.70;60.60;;;;;;5089377;28;21094;-70
2023/10/07 12:01:50;;;;;;;1999.90;999.90;;;25.40;58.90;;;;;;5088758;28;20432;-70
2023/10/07 12:04:16;;;;;;;1999.90;999.90;;;25.20;60.70;;;;;;5089259;28;20714;-71
2023/10/07 12:06:45;;;;;;;1999.90;999.90;;;24.60;64.20;;;;;;5089004;28;20422;-70
2023/10/07 12:09:12;;;;;;;1999.90;999.90;;;24.50;67.50;;;;;;5088788;28;20830;-70
2023/10/07 12:11:37;;;;;;;1999.90;999.90;;;24.20;69.70;;;;;;5088630;28;20551;-71
2023/10/07 12:14:03;;;;;;;1999.90;999.90;;;23.70;72.40;;;;;;5089211;28;20504;-69
2023/10/07 12:16:32;;;;;;;1999.90;999.90;;;23.40;78.20;;;;;;5087559;28;20211;-70
2023/10/07 12:18:58;;;;;;;1999.90;999.90;;;23.30;83.50;;;;;;5087402;28;20202;-70
2023/10/07 12:21:24;;;;;;;1999.90;999.90;;;23.10;83.40;;;;;;5088644;28;20413;-70
2023/10/07 12:23:49;;;;;;;1999.90;999.90;;;23.10;90.60;;;;;;5088647;28;20253;-70
2023/10/07 12:26:18;;;;;;;1999.90;999.90;;;24.00;85.90;;;;;;5087298;28;20174;-71
2023/10/07 12:28:44;;;;;;;1999.90;999.90;;;24.60;79.90;;;;;;5098429;28;20178;-70
2023/10/07 12:31:13;;;;;;;1999.90;999.90;;;25.20;72.70;;;;;;5085200;28;20433;-70
2023/10/07 12:33:39;;;;;;;1999.90;999.90;;;25.60;64.00;;;;;;5080533;28;20183;-70
2023/10/07 12:36:14;;;;;;;1999.90;999.90;;;25.70;60.70;;;;;;5081850;28;20823;-72
2023/10/07 12:38:43;;;;;;;1999.90;999.90;;;25.30;61.00;;;;;;5087007;28;20470;-72
2023/10/07 12:41:09;;;;;;;1999.90;999.90;;;24.70;64.30;;;;;;5087025;28;21164;-71
2023/10/07 12:43:36;;;;;;;1999.90;999.90;;;24.60;65.30;;;;;;5077085;28;20428;-72
2023/10/07 12:46:01;;;;;;;1999.90;999.90;;;24.80;63.90;;;;;;5092261;28;20608;-71